Time;durP1;ratioP1;P1;durP2;ratioP2;P2;SDS_P1;SDS_P2;PMS_P1;PMS_P2;Temp;Humidity;BMP_temperature;BMP_pressure;BME280_temperature;BME280_humidity;BME280_pressure;Samples;Min_cycle;Max_cycle;Signal;HPM_P1;HPM_P2
2021/09/18 00:01:04;;;;;;;;;19.75;18.50;;;;;18.34;70.92;101184.06;4989989;28;45416;-69
2021/09/18 00:03:30;;;;;;;;;19.25;19.25;;;;;18.29;71.07;101182.66;4992162;28;47439;-69
2021/09/18 00:05:55;;;;;;;;;19.00;17.50;;;;;18.24;71.72;101180.31;4979565;28;45508;-69
2021/09/18 00:08:21;;;;;;;;;20.50;19.75;;;;;18.22;71.29;101182.25;4987112;28;45365;-69
2021/09/18 00:10:46;;;;;;;;;22.25;20.00;;;;;18.20;71.59;101178.81;4989906;28;45400;-69
2021/09/18 00:13:11;;;;;;;;;19.25;17.25;;;;;18.17;71.51;101179.03;4988020;28;46340;-68
2021/09/18 00:15:38;;;;;;;;;20.25;18.25;;;;;18.18;71.27;101180.75;4978987;28;45329;-68
2021/09/18 00:18:03;;;;;;;;;18.50;17.50;;;;;18.14;71.58;101173.91;5003811;28;45411;-69
2021/09/18 00:20:29;;;;;;;;;22.25;16.75;;;;;18.13;71.44;101172.22;4992274;28;45368;-69
2021/09/18 00:22:54;;;;;;;;;19.25;17.50;;;;;18.13;71.25;101169.56;4992929;28;46298;-68
2021/09/18 00:25:19;;;;;;;;;19.00;17.00;;;;;18.11;71.20;101171.44;4992714;28;51352;-68
2021/09/18 00:27:45;;;;;;;;;24.75;20.50;;;;;18.12;71.17;101178.50;4995746;28;45575;-69
2021/09/18 00:30:10;;;;;;;;;22.00;19.50;;;;;17.99;71.47;101163.34;4993921;28;45320;-69
2021/09/18 00:32:35;;;;;;;;;19.75;18.75;;;;;18.03;71.28;101173.78;4991974;28;46107;-68
2021/09/18 00:35:01;;;;;;;;;20.75;20.00;;;;;18.03;71.55;101184.44;4992997;28;45477;-68
2021/09/18 00:37:26;;;;;;;;;19.00;18.25;;;;;18.01;71.54;101184.53;4992503;28;49702;-69
2021/09/18 00:39:52;;;;;;;;;19.75;18.50;;;;;17.95;71.79;101179.59;4980305;28;45358;-69
2021/09/18 00:42:17;;;;;;;;;20.25;19.50;;;;;17.93;71.85;101181.53;4981252;28;52125;-69
2021/09/18 00:44:43;;;;;;;;;22.75;19.50;;;;;17.87;71.44;101174.81;4992741;28;50562;-69
2021/09/18 00:47:08;;;;;;;;;18.25;18.25;;;;;17.86;71.41;101173.13;4988727;28;45376;-69
2021/09/18 00:49:33;;;;;;;;;20.75;20.75;;;;;17.86;71.81;101180.25;4983475;28;45224;-68
2021/09/18 00:52:00;;;;;;;;;22.25;21.50;;;;;17.81;71.62;101174.38;4994212;28;46192;-69
2021/09/18 00:54:26;;;;;;;;;20.25;17.00;;;;;17.77;71.85;101173.72;4986784;28;45958;-69
2021/09/18 00:56:54;;;;;;;;;22.50;21.00;;;;;17.74;71.61;101165.94;4996290;28;45379;-68
2021/09/18 00:59:21;;;;;;;;;21.00;18.25;;;;;17.71;72.21;101169.63;4986551;28;45364;-69
2021/09/18 01:01:46;;;;;;;;;22.25;17.00;;;;;17.69;71.82;101162.69;4985041;28;45430;-68
2021/09/18 01:04:12;;;;;;;;;20.75;19.75;;;;;17.66;72.15;101171.75;4994817;28;56660;-68
2021/09/18 01:06:37;;;;;;;;;19.50;17.00;;;;;17.63;72.39;101155.13;4985500;28;45416;-69
2021/09/18 01:09:02;;;;;;;;;21.00;19.25;;;;;17.51;72.58;101147.97;4992551;28;45669;-69
2021/09/18 01:11:28;;;;;;;;;18.25;16.25;;;;;17.58;72.58;101168.72;4986362;28;46518;-68
2021/09/18 01:13:53;;;;;;;;;22.00;18.75;;;;;17.54;72.82;101153.06;4987289;28;45412;-69
2021/09/18 01:16:20;;;;;;;;;17.00;17.00;;;;;17.54;72.68;101161.91;4991455;28;45467;-69
2021/09/18 01:18:46;;;;;;;;;19.75;17.75;;;;;17.48;72.82;101155.16;4995733;28;45333;-68
2021/09/18 01:21:12;;;;;;;;;20.75;17.25;;;;;17.49;72.91;101164.03;4992579;28;45647;-69
2021/09/18 01:23:37;;;;;;;;;19.75;17.00;;;;;17.45;72.65;101159.84;4993906;28;45751;-69
2021/09/18 01:26:03;;;;;;;;;24.50;17.25;;;;;17.41;73.17;101153.03;4994265;28;45668;-68
2021/09/18 01:28:28;;;;;;;;;18.75;16.00;;;;;17.33;72.89;101142.91;4981911;28;45364;-69
2021/09/18 01:30:54;;;;;;;;;20.00;17.50;;;;;17.38;72.82;101159.41;4987699;28;46335;-69
2021/09/18 01:33:20;;;;;;;;;18.50;17.75;;;;;17.40;72.96;101160.16;4979253;28;45428;-68
2021/09/18 01:35:46;;;;;;;;;21.75;19.00;;;;;17.39;72.90;101153.13;4988558;28;45380;-69
2021/09/18 01:38:11;;;;;;;;;23.00;18.75;;;;;17.38;72.83;101148.78;4991441;28;45440;-69
2021/09/18 01:40:40;;;;;;;;;19.50;17.75;;;;;17.30;72.84;101137.78;4991604;28;46477;-68
2021/09/18 01:43:06;;;;;;;;;24.00;19.25;;;;;17.37;73.14;101147.03;4992697;28;45793;-68
2021/09/18 01:45:33;;;;;;;;;22.25;17.00;;;;;17.39;73.09;101149.63;4980209;28;45404;-68
2021/09/18 01:48:05;;;;;;;;;23.25;21.00;;;;;17.39;73.39;101154.94;4991085;28;45423;-68
2021/09/18 01:50:44;;;;;;;;;19.75;19.00;;;;;17.40;72.94;101157.50;4991557;28;45743;-68
2021/09/18 01:53:10;;;;;;;;;21.00;19.50;;;;;17.41;73.19;101163.66;4991380;28;45776;-69
2021/09/18 01:55:37;;;;;;;;;20.25;17.00;;;;;17.42;72.97;101160.03;4991655;28;46034;-69
2021/09/18 01:58:03;;;;;;;;;20.00;18.25;;;;;17.42;72.85;101158.22;4991241;28;45426;-69
2021/09/18 02:00:29;;;;;;;;;18.75;16.75;;;;;17.41;72.72;101153.88;4992449;28;45773;-69
2021/09/18 02:02:55;;;;;;;;;25.25;21.00;;;;;17.40;72.75;101160.16;4982573;28;45481;-69
2021/09/18 02:05:24;;;;;;;;;22.25;17.50;;;;;17.40;72.92;101157.50;4989162;28;45522;-68
2021/09/18 02:07:50;;;;;;;;;20.00;17.50;;;;;17.39;72.76;101155.78;4991452;28;45424;-69
2021/09/18 02:10:18;;;;;;;;;17.50;17.50;;;;;17.41;73.27;101166.31;4991160;28;45401;-69
2021/09/18 02:12:44;;;;;;;;;21.75;20.00;;;;;17.35;73.05;101148.13;4995785;28;45522;-69
2021/09/18 02:15:10;;;;;;;;;19.25;18.00;;;;;17.35;72.97;101151.63;4980678;28;45522;-69
2021/09/18 02:17:36;;;;;;;;;18.00;17.25;;;;;17.34;72.78;101155.22;5012145;28;45727;-69
2021/09/18 02:20:03;;;;;;;;;17.25;17.00;;;;;17.31;73.46;101154.56;4990705;28;46733;-69
2021/09/18 02:22:28;;;;;;;;;18.25;16.00;;;;;17.18;73.45;101141.25;4991044;28;45388;-69
2021/09/18 02:24:54;;;;;;;;;18.00;16.00;;;;;17.24;73.12;101162.09;4994118;28;45486;-69
2021/09/18 02:27:19;;;;;;;;;18.25;15.75;;;;;17.19;73.58;101156.22;4992987;28;45550;-69
2021/09/18 02:29:45;;;;;;;;;19.75;17.00;;;;;17.16;73.81;101153.75;4987746;28;45397;-68
2021/09/18 02:32:10;;;;;;;;;16.00;14.75;;;;;17.14;73.57;101156.50;4987112;28;45379;-68
2021/09/18 02:34:35;;;;;;;;;16.75;16.75;;;;;17.10;74.23;101152.34;4994039;28;45703;-69
2021/09/18 02:37:01;;;;;;;;;21.75;19.25;;;;;17.11;73.91;101154.03;4980268;28;45500;-69
2021/09/18 02:39:26;;;;;;;;;16.75;16.75;;;;;17.07;73.93;101149.00;4977864;28;45494;-69
2021/09/18 02:41:52;;;;;;;;;20.75;19.25;;;;;17.05;74.04;101150.91;4989530;28;45433;-69
2021/09/18 02:44:17;;;;;;;;;18.00;17.75;;;;;17.02;74.11;101144.03;4989569;28;45463;-69
2021/09/18 02:46:42;;;;;;;;;17.00;17.00;;;;;17.00;74.11;101140.59;4990602;28;45477;-69
2021/09/18 02:49:08;;;;;;;;;21.25;18.00;;;;;17.01;74.25;101144.09;4992170;28;45512;-68
2021/09/18 02:51:33;;;;;;;;;20.50;16.25;;;;;16.99;74.03;101135.38;5005503;28;45509;-68
2021/09/18 02:54:02;;;;;;;;;19.75;19.50;;;;;16.98;74.12;101136.34;4991227;28;45370;-68
2021/09/18 02:56:28;;;;;;;;;18.25;16.25;;;;;16.99;74.39;101143.34;4982870;28;45383;-69
2021/09/18 02:58:53;;;;;;;;;21.00;18.25;;;;;16.97;73.98;101140.81;4980637;28;47109;-69
2021/09/18 03:01:18;;;;;;;;;19.75;15.50;;;;;16.94;74.57;101133.88;4980000;28;52959;-68
2021/09/18 03:03:44;;;;;;;;;15.25;15.25;;;;;16.93;74.54;101129.50;4994536;28;45496;-68
2021/09/18 03:06:09;;;;;;;;;23.00;17.75;;;;;16.93;74.49;101142.78;4991253;28;45334;-69
2021/09/18 03:08:34;;;;;;;;;17.50;16.00;;;;;16.92;74.17;101146.41;4992999;28;45935;-69
2021/09/18 03:11:00;;;;;;;;;19.75;16.50;;;;;16.92;74.39;101143.75;4989910;28;45407;-69
2021/09/18 03:13:25;;;;;;;;;18.25;18.00;;;;;16.93;74.62;101149.91;4990953;28;47363;-69
2021/09/18 03:15:50;;;;;;;;;20.75;16.75;;;;;16.93;74.58;101153.41;4979529;28;45473;-69
2021/09/18 03:18:16;;;;;;;;;17.25;15.50;;;;;16.97;74.63;101145.25;4992000;28;46880;-68
2021/09/18 03:20:41;;;;;;;;;17.75;15.25;;;;;17.03;74.64;101152.84;4990611;28;45296;-68
2021/09/18 03:23:08;;;;;;;;;20.00;15.50;;;;;17.07;74.79;101152.53;4987937;28;45217;-68
2021/09/18 03:25:34;;;;;;;;;22.00;16.25;;;;;17.10;74.45;101149.69;4988510;28;45639;-69
2021/09/18 03:28:00;;;;;;;;;17.25;16.00;;;;;17.12;74.73;101139.84;4992979;28;45598;-69
2021/09/18 03:30:26;;;;;;;;;17.25;16.50;;;;;17.18;74.60;101135.94;4979002;28;45532;-69
2021/09/18 03:32:51;;;;;;;;;17.50;16.75;;;;;17.15;74.68;101125.50;4990634;28;45626;-68
2021/09/18 03:35:16;;;;;;;;;17.25;14.75;;;;;17.18;74.53;101133.28;4987458;28;45650;-69
2021/09/18 03:37:41;;;;;;;;;17.25;15.50;;;;;17.20;74.11;101131.34;4982273;28;49336;-68
2021/09/18 03:40:10;;;;;;;;;17.00;16.00;;;;;17.25;74.01;101134.56;4990560;28;45464;-69
2021/09/18 03:42:36;;;;;;;;;21.50;16.00;;;;;17.25;74.00;101131.06;4992548;28;45467;-69
2021/09/18 03:45:03;;;;;;;;;17.75;15.50;;;;;17.23;73.99;101125.88;4990793;28;45357;-69
2021/09/18 03:47:28;;;;;;;;;19.50;15.25;;;;;17.26;74.15;101127.44;4989760;28;46697;-68
2021/09/18 03:49:54;;;;;;;;;15.25;14.50;;;;;17.25;74.06;101126.59;4988762;28;45411;-69
2021/09/18 03:52:20;;;;;;;;;20.75;14.50;;;;;17.21;73.88;101119.78;4982883;28;45404;-69
2021/09/18 03:54:45;;;;;;;;;14.75;14.50;;;;;17.23;73.94;101128.50;4992162;28;45345;-69
2021/09/18 03:57:10;;;;;;;;;17.75;14.25;;;;;17.20;73.50;101120.72;4993963;28;46604;-68
2021/09/18 03:59:36;;;;;;;;;14.00;13.75;;;;;17.16;73.78;101120.06;4990152;28;45699;-69
2021/09/18 04:02:01;;;;;;;;;19.25;15.25;;;;;17.12;73.95;101120.34;4992833;28;45490;-69
2021/09/18 04:04:26;;;;;;;;;15.25;15.00;;;;;17.13;73.88;101125.59;4992692;28;45406;-69
2021/09/18 04:06:52;;;;;;;;;16.50;13.50;;;;;17.09;74.13;101129.38;5012822;28;47221;-68
2021/09/18 04:09:18;;;;;;;;;15.00;15.00;;;;;16.94;73.67;101114.44;4996106;28;45430;-68
2021/09/18 04:11:43;;;;;;;;;16.00;13.00;;;;;17.02;73.88;101130.75;4992689;28;45533;-69
2021/09/18 04:14:08;;;;;;;;;13.75;12.75;;;;;17.02;73.75;101143.13;4987108;28;45546;-69
2021/09/18 04:16:34;;;;;;;;;16.00;15.00;;;;;16.97;73.90;101143.47;4986278;28;46659;-68
2021/09/18 04:18:59;;;;;;;;;16.25;13.75;;;;;16.95;73.85;101143.53;4991389;28;45459;-69
2021/09/18 04:21:25;;;;;;;;;17.25;16.00;;;;;16.93;74.00;101139.28;4989202;28;45431;-69
2021/09/18 04:23:50;;;;;;;;;21.50;15.75;;;;;16.90;74.08;101148.28;4984442;28;45214;-69
2021/09/18 04:26:15;;;;;;;;;14.00;12.25;;;;;16.93;74.11;101152.56;4991422;28;46111;-69
2021/09/18 04:28:41;;;;;;;;;15.00;14.00;;;;;16.89;74.37;101143.06;4992309;28;45495;-68
2021/09/18 04:31:06;;;;;;;;;15.25;14.25;;;;;16.85;74.33;101134.44;4983371;28;45399;-69
2021/09/18 04:33:32;;;;;;;;;18.75;13.75;;;;;16.80;74.68;101141.00;4981185;28;45440;-69
2021/09/18 04:35:57;;;;;;;;;13.50;12.75;;;;;16.87;74.23;101151.16;4983554;28;45253;-69
2021/09/18 04:38:23;;;;;;;;;17.50;14.25;;;;;16.77;74.51;101125.28;4992481;28;45392;-68
2021/09/18 04:40:48;;;;;;;;;15.75;14.75;;;;;16.88;74.42;101142.22;4992607;28;45752;-68
2021/09/18 04:43:13;;;;;;;;;13.00;12.75;;;;;16.88;73.99;101142.22;4992346;28;45522;-68
2021/09/18 04:45:39;;;;;;;;;17.00;12.00;;;;;16.89;74.55;101157.19;4994218;28;46549;-69
2021/09/18 04:48:04;;;;;;;;;15.50;14.75;;;;;16.87;74.52;101148.50;4982087;28;45333;-69
2021/09/18 04:50:30;;;;;;;;;15.50;14.00;;;;;16.88;74.64;101155.50;4992767;28;45514;-69
2021/09/18 04:52:55;;;;;;;;;13.00;12.75;;;;;16.86;74.64;101152.09;4989340;28;45497;-69
2021/09/18 04:55:21;;;;;;;;;18.00;13.25;;;;;16.82;74.99;101145.28;4985880;28;45536;-68
2021/09/18 04:57:46;;;;;;;;;10.75;10.75;;;;;16.86;74.75;101159.19;4988781;28;45689;-68
2021/09/18 05:00:12;;;;;;;;;18.50;16.00;;;;;16.83;74.66;101148.78;4990864;28;45502;-68
2021/09/18 05:02:37;;;;;;;;;20.00;14.25;;;;;16.86;74.57;101153.88;4980657;28;45576;-69
2021/09/18 05:05:03;;;;;;;;;18.50;15.50;;;;;16.86;74.69;101168.03;4987426;28;46536;-69
2021/09/18 05:07:28;;;;;;;;;14.75;13.25;;;;;16.86;74.60;101167.16;4991833;28;45614;-69
2021/09/18 05:09:53;;;;;;;;;13.75;13.75;;;;;16.83;74.33;101159.38;4995144;28;45396;-68
2021/09/18 05:12:19;;;;;;;;;20.25;14.00;;;;;16.82;74.53;101163.84;4983516;28;45574;-69
2021/09/18 05:14:44;;;;;;;;;13.75;13.25;;;;;16.86;74.68;101167.16;4994836;28;45438;-69
2021/09/18 05:17:09;;;;;;;;;17.75;14.25;;;;;16.84;74.75;101158.44;4989256;28;45313;-68
2021/09/18 05:19:35;;;;;;;;;14.00;13.25;;;;;16.82;74.83;101160.34;4985738;28;45437;-69
2021/09/18 05:22:00;;;;;;;;;15.75;14.00;;;;;16.83;74.71;101165.53;4989461;28;45433;-69
2021/09/18 05:24:27;;;;;;;;;17.25;13.00;;;;;16.74;74.27;101149.34;4984772;28;47307;-68
2021/09/18 05:26:52;;;;;;;;;13.50;9.75;;;;;16.83;74.78;101165.53;4992413;28;45737;-68
2021/09/18 05:29:17;;;;;;;;;18.25;13.75;;;;;16.82;74.77;101158.53;4989980;28;45475;-69
2021/09/18 05:31:43;;;;;;;;;14.75;13.00;;;;;16.85;74.72;101166.28;4992901;28;45459;-68
2021/09/18 05:34:09;;;;;;;;;14.25;12.25;;;;;16.86;74.62;101167.16;4995819;28;45587;-68
2021/09/18 05:36:35;;;;;;;;;15.00;14.75;;;;;16.87;74.31;101167.06;4996262;28;45280;-68
2021/09/18 05:39:00;;;;;;;;;10.25;10.25;;;;;16.89;74.10;101167.81;4996196;28;45526;-68
2021/09/18 05:41:25;;;;;;;;;14.00;12.00;;;;;16.92;73.86;101170.28;4992565;28;45434;-68
2021/09/18 05:43:51;;;;;;;;;14.00;11.25;;;;;16.99;73.86;101175.22;4984125;28;46441;-68
2021/09/18 05:46:16;;;;;;;;;14.75;12.75;;;;;17.01;73.88;101184.78;4984515;28;54292;-68
2021/09/18 05:48:41;;;;;;;;;17.25;13.00;;;;;17.03;73.63;101179.38;4995608;28;45324;-68
2021/09/18 05:51:07;;;;;;;;;14.50;14.00;;;;;17.06;73.59;101180.03;4996033;28;45393;-68
2021/09/18 05:53:32;;;;;;;;;12.25;11.25;;;;;17.08;73.55;101172.00;4994710;28;47447;-68
2021/09/18 05:55:57;;;;;;;;;14.25;11.00;;;;;17.13;73.40;101170.75;4992935;28;45755;-68
2021/09/18 05:58:23;;;;;;;;;13.25;11.00;;;;;17.16;73.10;101175.84;4990920;28;45505;-69
2021/09/18 06:00:48;;;;;;;;;11.00;10.50;;;;;17.20;73.14;101179.16;4995252;28;45402;-68
2021/09/18 06:03:13;;;;;;;;;14.25;13.00;;;;;17.16;72.60;101169.69;4986815;28;46577;-68
2021/09/18 06:05:39;;;;;;;;;16.00;12.00;;;;;17.28;72.10;101182.19;4991391;28;46973;-68
2021/09/18 06:08:04;;;;;;;;;12.50;10.00;;;;;17.31;72.56;101181.97;4986213;28;45538;-68
2021/09/18 06:10:30;;;;;;;;;13.00;10.75;;;;;17.36;72.40;101185.19;4982261;28;45613;-68
2021/09/18 06:12:55;;;;;;;;;13.50;12.00;;;;;17.42;72.12;101189.25;4993836;28;46113;-68
2021/09/18 06:15:20;;;;;;;;;17.75;14.00;;;;;17.45;72.05;101186.41;4992820;28;52087;-68
2021/09/18 06:17:46;;;;;;;;;15.75;13.75;;;;;17.50;71.94;101186.13;4991869;28;45596;-68
2021/09/18 06:20:11;;;;;;;;;13.75;12.75;;;;;17.53;71.61;101194.75;4990321;28;50304;-68
2021/09/18 06:22:37;;;;;;;;;15.75;14.75;;;;;17.44;71.72;101176.75;4982871;28;45701;-68
2021/09/18 06:25:02;;;;;;;;;13.50;11.00;;;;;17.54;71.45;101190.28;5010440;28;45515;-68
2021/09/18 06:27:28;;;;;;;;;15.50;13.25;;;;;17.66;71.32;101197.47;4994799;28;45997;-68
2021/09/18 06:29:54;;;;;;;;;13.00;12.00;;;;;17.68;71.09;101196.41;4990912;28;45354;-68
2021/09/18 06:32:19;;;;;;;;;16.50;14.25;;;;;17.74;70.97;101192.50;4982054;28;46478;-68
2021/09/18 06:34:44;;;;;;;;;14.75;13.50;;;;;17.75;71.50;101188.94;4983410;28;45573;-68
2021/09/18 06:37:10;;;;;;;;;13.25;11.25;;;;;17.84;70.75;101195.44;4979910;28;45370;-68
2021/09/18 06:39:36;;;;;;;;;14.25;14.00;;;;;17.86;70.17;101186.41;4994539;28;45874;-68
2021/09/18 06:42:02;;;;;;;;;14.50;13.00;;;;;17.96;70.51;101189.31;4991017;28;47007;-68
2021/09/18 06:44:27;;;;;;;;;14.75;12.25;;;;;18.01;70.37;101184.53;4990327;28;45525;-68
2021/09/18 06:46:52;;;;;;;;;13.25;12.00;;;;;18.04;70.31;101178.16;4989380;28;45530;-69
2021/09/18 06:49:18;;;;;;;;;16.00;14.00;;;;;18.02;70.05;101167.63;4987776;28;45424;-69
2021/09/18 06:51:43;;;;;;;;;13.25;11.75;;;;;18.16;69.96;101187.94;4994430;28;46307;-70
2021/09/18 06:54:08;;;;;;;;;14.75;12.75;;;;;18.20;69.53;101184.13;4980091;28;46318;-69
2021/09/18 06:56:33;;;;;;;;;16.75;13.75;;;;;18.23;69.78;101189.25;4987809;28;45416;-68
2021/09/18 06:58:59;;;;;;;;;13.00;13.00;;;;;18.23;69.20;101183.94;4986312;28;45673;-69
2021/09/18 07:01:25;;;;;;;;;10.50;10.50;;;;;18.27;69.34;101193.44;4989498;28;45450;-69
2021/09/18 07:03:50;;;;;;;;;11.75;11.00;;;;;18.29;69.05;101188.00;4990101;28;45797;-69
2021/09/18 07:06:16;;;;;;;;;13.50;13.00;;;;;18.30;69.04;101182.56;4979567;28;45489;-68
2021/09/18 07:08:41;;;;;;;;;14.00;12.00;;;;;18.30;68.76;101179.91;4986740;28;45278;-68
2021/09/18 07:11:06;;;;;;;;;14.25;12.75;;;;;18.33;68.65;101184.19;4989476;28;45879;-69
2021/09/18 07:13:32;;;;;;;;;13.75;12.75;;;;;18.37;68.67;101178.50;4990255;28;45550;-68
2021/09/18 07:15:57;;;;;;;;;10.75;10.75;;;;;18.44;68.36;101176.31;4992520;28;45241;-68
2021/09/18 07:18:22;;;;;;;;;15.25;14.00;;;;;18.50;68.35;101182.03;4977704;28;45726;-69
2021/09/18 07:20:48;;;;;;;;;12.75;11.00;;;;;18.60;68.30;101184.06;4981637;28;46676;-69
2021/09/18 07:23:13;;;;;;;;;12.75;12.75;;;;;18.66;68.13;101183.66;4984465;28;45403;-68
2021/09/18 07:25:39;;;;;;;;;14.00;12.50;;;;;18.78;67.65;101190.78;4989245;28;45411;-69
2021/09/18 07:28:04;;;;;;;;;12.50;11.00;;;;;18.83;67.76;101186.00;4987771;28;45460;-69
2021/09/18 07:30:30;;;;;;;;;11.00;11.00;;;;;18.95;68.52;101187.81;4988322;28;45843;-69
2021/09/18 07:32:56;;;;;;;;;14.75;14.00;;;;;19.02;67.40;101189.06;4985143;28;45511;-69
2021/09/18 07:35:21;;;;;;;;;16.50;14.25;;;;;19.15;67.46;101196.19;4989322;28;45471;-69
2021/09/18 07:37:46;;;;;;;;;24.75;21.75;;;;;19.15;67.18;101182.84;4988292;28;45363;-68
2021/09/18 07:40:12;;;;;;;;;17.00;14.50;;;;;19.34;67.29;101195.72;4992619;28;56534;-67
2021/09/18 07:42:38;;;;;;;;;13.75;11.75;;;;;19.46;66.45;101194.81;4991706;28;45516;-68
2021/09/18 07:45:05;;;;;;;;;14.00;13.00;;;;;19.59;66.22;101181.47;4981500;28;45450;-67
2021/09/18 07:47:31;;;;;;;;;12.00;11.00;;;;;19.66;65.77;101180.06;4983305;28;45490;-67
2021/09/18 07:49:56;;;;;;;;;14.50;13.25;;;;;19.78;65.30;101181.81;4990176;28;46613;-67
2021/09/18 07:52:22;;;;;;;;;12.00;11.25;;;;;19.98;65.01;101191.84;4990440;28;45278;-67
2021/09/18 07:54:47;;;;;;;;;13.25;12.00;;;;;20.20;64.29;101203.56;4979195;28;45305;-67
2021/09/18 07:57:12;;;;;;;;;13.00;11.50;;;;;20.45;63.90;101208.72;4979726;28;45309;-67
2021/09/18 07:59:38;;;;;;;;;14.00;10.75;;;;;20.74;63.93;101200.31;4980345;28;46594;-67
2021/09/18 08:02:03;;;;;;;;;13.75;12.00;;;;;21.08;63.98;101202.00;4984085;28;45375;-67
2021/09/18 08:04:29;;;;;;;;;10.50;9.00;;;;;21.34;61.94;101191.09;4990008;28;45371;-67
2021/09/18 08:06:54;;;;;;;;;11.25;9.25;;;;;21.74;62.17;101201.22;4991036;28;45372;-67
2021/09/18 08:09:20;;;;;;;;;19.25;13.00;;;;;22.34;61.21;101197.94;4991210;28;46444;-67
2021/09/18 08:11:45;;;;;;;;;13.50;13.25;;;;;23.10;59.90;101197.63;4986353;28;45374;-67
2021/09/18 08:14:11;;;;;;;;;13.00;11.75;;;;;23.47;59.08;101195.19;4985607;28;45553;-67
2021/09/18 08:16:36;;;;;;;;;9.00;8.25;;;;;24.85;58.96;101201.22;4978496;28;45657;-68
2021/09/18 08:19:03;;;;;;;;;12.00;12.00;;;;;26.72;55.51;101202.28;4978447;28;45509;-67
2021/09/18 08:21:28;;;;;;;;;10.25;9.00;;;;;28.53;52.86;101197.19;4992262;28;45653;-67
2021/09/18 08:23:53;;;;;;;;;8.75;8.75;;;;;29.35;49.97;101201.34;4982450;28;45588;-68
2021/09/18 08:26:19;;;;;;;;;11.25;10.50;;;;;29.93;48.99;101196.41;4984237;28;45459;-68
2021/09/18 08:28:44;;;;;;;;;11.00;9.25;;;;;30.57;47.93;101204.16;4981488;28;45579;-67
2021/09/18 08:31:10;;;;;;;;;11.50;11.00;;;;;30.58;46.97;101212.13;4977381;28;45368;-68
2021/09/18 08:33:35;;;;;;;;;8.75;7.00;;;;;30.27;46.00;101212.25;4987072;28;45388;-71
2021/09/18 08:36:01;;;;;;;;;12.00;9.00;;;;;30.58;45.23;101203.13;4981931;28;45548;-71
2021/09/18 08:38:26;;;;;;;;;10.00;8.50;;;;;30.79;45.56;101210.56;4984819;28;46328;-68
2021/09/18 08:40:54;;;;;;;;;9.00;8.25;;;;;30.62;43.95;101213.44;4985299;28;45360;-69
2021/09/18 08:43:20;;;;;;;;;7.00;7.00;;;;;30.53;44.10;101210.97;4994554;28;45534;-70
2021/09/18 08:45:46;;;;;;;;;8.00;8.00;;;;;30.70;43.15;101198.97;4981552;28;45449;-70
2021/09/18 08:48:13;;;;;;;;;10.00;9.00;;;;;30.32;42.98;101209.81;4979196;28;45613;-70
2021/09/18 08:50:39;;;;;;;;;8.25;8.25;;;;;30.37;43.91;101209.28;4992219;28;45679;-70
2021/09/18 08:53:05;;;;;;;;;8.00;7.50;;;;;32.81;43.54;101207.69;4989413;28;45320;-69
2021/09/18 08:55:30;;;;;;;;;11.00;8.75;;;;;35.97;39.90;101197.94;4986356;28;45443;-70
2021/09/18 08:57:56;;;;;;;;;6.25;6.25;;;;;38.63;36.96;101197.03;4988863;28;45529;-70
2021/09/18 09:00:33;;;;;;;;;11.25;8.00;;;;;41.06;34.33;101200.81;4991922;28;45366;-69
2021/09/18 09:03:08;;;;;;;;;7.50;6.50;;;;;43.05;31.71;101208.00;4996028;28;45309;-68
2021/09/18 09:05:43;;;;;;;;;7.25;7.25;;;;;44.55;30.89;101205.91;4989759;28;45261;-69
2021/09/18 09:08:17;;;;;;;;;7.00;7.00;;;;;45.30;27.99;101209.50;4992314;28;46463;-69
2021/09/18 09:10:46;;;;;;;;;11.50;7.75;;;;;46.27;26.74;101217.13;4984920;28;45534;-69
2021/09/18 09:13:13;;;;;;;;;6.25;6.00;;;;;47.02;25.57;101211.00;4993443;28;45476;-70
2021/09/18 09:15:39;;;;;;;;;7.50;6.25;;;;;47.67;24.38;101215.94;4990728;28;45706;-70
2021/09/18 09:18:26;;;;;;;;;6.25;6.25;;;;;48.42;24.13;101212.13;4990032;28;46695;-70
2021/09/18 09:21:16;;;;;;;;;4.75;4.75;;;;;48.64;23.65;101214.19;4983680;28;45316;-70
2021/09/18 09:23:43;;;;;;;;;6.50;5.50;;;;;48.56;22.59;101207.38;4992270;28;45475;-71
2021/09/18 09:26:13;;;;;;;;;7.00;6.00;;;;;48.29;22.78;101202.59;4991381;28;45358;-71
2021/09/18 09:28:40;;;;;;;;;6.00;6.00;;;;;48.56;22.13;101204.59;4982605;28;46307;-71
2021/09/18 09:31:11;;;;;;;;;6.00;5.25;;;;;48.12;21.49;101196.78;4992436;28;45436;-70
2021/09/18 09:34:05;;;;;;;;;6.25;6.25;;;;;47.78;20.74;101203.50;4995995;28;45496;-69
2021/09/18 09:36:41;;;;;;;;;6.00;4.25;;;;;47.21;21.40;101202.66;4994847;28;45429;-70
2021/09/18 09:39:09;;;;;;;;;4.50;4.50;;;;;46.48;22.14;101203.84;4983470;28;46532;-70
2021/09/18 09:41:40;;;;;;;;;5.00;5.00;;;;;45.65;22.37;101195.69;4990884;28;45506;-70
2021/09/18 09:44:15;;;;;;;;;5.00;5.00;;;;;44.54;22.31;101193.19;4989992;28;45507;-69
2021/09/18 09:46:41;;;;;;;;;3.75;3.75;;;;;43.65;24.13;101192.69;4988275;28;45266;-69
2021/09/18 09:49:16;;;;;;;;;8.00;6.00;;;;;42.98;23.47;101182.50;4991283;28;46388;-69
2021/09/18 09:51:43;;;;;;;;;6.50;5.00;;;;;42.25;23.90;101190.69;4991604;28;45481;-69
2021/09/18 09:54:26;;;;;;;;;5.25;5.25;;;;;41.78;24.30;101190.56;4992209;28;45179;-69
2021/09/18 09:57:07;;;;;;;;;5.50;5.50;;;;;41.49;24.16;101185.28;4992779;28;45246;-69
2021/09/18 09:59:32;;;;;;;;;6.50;5.75;;;;;41.33;25.11;101188.97;4988167;28;47410;-69
2021/09/18 10:01:58;;;;;;;;;7.00;6.00;;;;;40.89;25.18;101189.81;4996450;28;45550;-69
2021/09/18 10:04:23;;;;;;;;;6.75;5.75;;;;;39.99;25.48;101195.59;4998817;28;45494;-69
2021/09/18 10:06:49;;;;;;;;;6.25;5.50;;;;;39.75;26.10;101189.44;4987033;28;45626;-70
2021/09/18 10:09:16;;;;;;;;;6.25;5.00;;;;;39.19;26.37;101185.59;4995655;28;46645;-69
2021/09/18 10:11:42;;;;;;;;;7.50;6.25;;;;;38.81;26.79;101187.00;4993926;28;45331;-70
2021/09/18 10:14:12;;;;;;;;;7.00;6.25;;;;;38.80;26.97;101188.09;4988649;28;45566;-70
2021/09/18 10:16:39;;;;;;;;;5.25;4.00;;;;;39.05;26.90;101169.38;4991800;28;45620;-71
2021/09/18 10:19:07;;;;;;;;;5.25;5.25;;;;;39.08;26.97;101179.88;4992947;28;45459;-69
2021/09/18 10:24:18;;;;;;;;;5.50;4.75;;;;;39.07;27.41;101174.63;4999402;28;45579;-70
2021/09/18 10:26:43;;;;;;;;;5.00;5.00;;;;;39.29;26.78;101183.06;4988519;28;45710;-70
2021/09/18 10:29:08;;;;;;;;;5.00;4.00;;;;;39.33;26.57;101181.50;4989169;28;45408;-70
2021/09/18 10:31:34;;;;;;;;;5.00;5.00;;;;;39.02;26.46;101174.53;4984987;28;45274;-70
2021/09/18 10:34:21;;;;;;;;;4.75;4.75;;;;;38.23;26.59;101172.19;4992477;28;45460;-70
2021/09/18 10:36:47;;;;;;;;;4.25;4.00;;;;;37.67;27.36;101167.19;4989254;28;45457;-70
2021/09/18 10:39:18;;;;;;;;;5.00;5.00;;;;;37.15;28.08;101172.34;4990662;28;47436;-70
2021/09/18 10:41:47;;;;;;;;;4.50;3.50;;;;;36.30;27.67;101164.84;4982097;28;45642;-70
2021/09/18 10:44:14;;;;;;;;;5.00;4.00;;;;;35.74;29.34;101162.97;4991017;28;46232;-70
2021/09/18 10:46:59;;;;;;;;;4.50;4.00;;;;;35.55;29.28;101154.69;4992371;28;45442;-70
2021/09/18 10:49:31;;;;;;;;;4.00;4.00;;;;;35.11;29.18;101161.00;4991137;28;46421;-70
2021/09/18 10:52:22;;;;;;;;;4.00;4.00;;;;;34.67;30.02;101150.84;4982528;28;45756;-69
2021/09/18 10:55:05;;;;;;;;;3.00;3.00;;;;;34.37;29.81;101150.47;4980037;28;45559;-70
2021/09/18 10:57:39;;;;;;;;;4.50;4.00;;;;;34.13;30.50;101141.88;4994092;28;45317;-70
2021/09/18 11:00:07;;;;;;;;;4.75;4.25;;;;;33.83;30.57;101149.63;4987308;28;45661;-69
2021/09/18 11:02:33;;;;;;;;;19.00;17.25;;;;;33.62;31.68;101137.03;4988438;28;45472;-69
2021/09/18 11:05:04;;;;;;;;;6.67;6.67;;;;;33.47;31.22;101136.38;4988333;28;45787;-70
2021/09/18 11:07:39;;;;;;;;;5.25;4.75;;;;;33.27;31.32;101144.47;4991705;28;45497;-69
2021/09/18 11:10:11;;;;;;;;;2.00;2.00;;;;;33.14;31.91;101134.34;4980242;28;45421;-69
2021/09/18 11:12:37;;;;;;;;;6.75;5.00;;;;;33.05;32.28;101138.31;4978051;28;45516;-69